createdAt,value
2019-05-05T00:01:25.067Z,1.83
2019-05-05T00:04:06.248Z,1.77
2019-05-05T00:06:34.245Z,1.74
2019-05-05T00:09:01.913Z,1.68
2019-05-05T00:11:40.086Z,1.86
2019-05-05T00:14:09.803Z,1.75
2019-05-05T00:16:48.006Z,1.82
2019-05-05T00:19:29.477Z,1.73
2019-05-05T00:21:45.003Z,1.77
2019-05-05T00:24:12.505Z,1.70
2019-05-05T00:26:40.003Z,1.72
2019-05-05T00:29:07.505Z,1.71
2019-05-05T00:31:35.079Z,1.74
2019-05-05T00:34:04.865Z,1.60
2019-05-05T00:36:31.904Z,1.59
2019-05-05T00:39:00.149Z,1.51
2019-05-05T00:41:27.644Z,1.54
2019-05-05T00:43:55.503Z,1.47
2019-05-05T00:46:27.252Z,1.43
2019-05-05T00:48:55.103Z,1.47
2019-05-05T00:51:24.470Z,1.42
2019-05-05T00:53:52.084Z,1.54
2019-05-05T00:56:19.593Z,1.49
2019-05-05T00:58:49.488Z,1.38
2019-05-05T01:01:37.305Z,1.35
2019-05-05T01:04:05.319Z,1.23
2019-05-05T01:06:34.626Z,1.27
2019-05-05T01:09:04.298Z,1.15
2019-05-05T01:11:31.993Z,1.24
2019-05-05T01:13:59.489Z,1.19
2019-05-05T01:16:26.993Z,1.19
2019-05-05T01:18:55.403Z,1.03
2019-05-05T01:21:24.410Z,1.12
2019-05-05T01:23:52.140Z,1.11
2019-05-05T01:26:19.644Z,1.21
2019-05-05T01:28:47.136Z,1.16
2019-05-05T01:31:16.480Z,1.24
2019-05-05T01:34:01.921Z,1.08
2019-05-05T01:36:29.424Z,1.11
2019-05-05T01:39:01.483Z,1.33
2019-05-05T01:41:34.817Z,1.33
2019-05-05T01:44:04.677Z,1.21
2019-05-05T01:46:31.704Z,1.17
2019-05-05T01:48:59.284Z,1.20
2019-05-05T01:51:27.552Z,1.13
2019-05-05T01:53:55.044Z,1.30
2019-05-05T01:56:24.544Z,1.23
2019-05-05T01:58:51.763Z,1.18
2019-05-05T02:01:19.268Z,1.20
2019-05-05T02:03:46.760Z,1.23
2019-05-05T02:06:15.134Z,1.41
2019-05-05T02:08:42.631Z,1.25
2019-05-05T02:11:10.129Z,1.11
2019-05-05T02:13:37.620Z,1.26
2019-05-05T02:16:05.130Z,1.20
2019-05-05T02:18:34.489Z,1.05
2019-05-05T02:21:04.954Z,1.01
2019-05-05T02:23:32.292Z,0.83
2019-05-05T02:25:59.796Z,0.60
2019-05-05T02:28:28.931Z,0.54
2019-05-05T02:31:16.689Z,0.59
2019-05-05T02:33:45.978Z,0.60
2019-05-05T02:36:15.756Z,0.80
2019-05-05T02:38:42.002Z,0.88
2019-05-05T02:41:09.516Z,0.79
2019-05-05T02:43:37.006Z,0.75
2019-05-05T02:46:06.150Z,0.88
2019-05-05T02:48:35.497Z,0.88
2019-05-05T02:51:06.725Z,1.07
2019-05-05T02:53:37.341Z,1.01
2019-05-05T02:56:06.476Z,0.92
2019-05-05T02:58:35.431Z,0.87
2019-05-05T03:01:07.088Z,1.17
2019-05-05T03:03:35.144Z,1.19
2019-05-05T03:06:04.449Z,1.16
2019-05-05T03:08:33.583Z,1.20
2019-05-05T03:11:01.338Z,1.16
2019-05-05T03:13:29.800Z,1.19
2019-05-05T03:15:58.929Z,1.09
2019-05-05T03:18:26.420Z,1.09
2019-05-05T03:21:03.951Z,1.11
2019-05-05T03:23:24.042Z,0.99
2019-05-05T03:25:51.712Z,0.68
2019-05-05T03:28:19.200Z,0.54
2019-05-05T03:30:46.701Z,0.45
2019-05-05T03:33:15.978Z,0.44
2019-05-05T03:35:43.667Z,0.48
2019-05-05T03:38:11.288Z,0.57
2019-05-05T03:40:40.416Z,0.60
2019-05-05T03:43:09.555Z,0.65
2019-05-05T03:45:47.344Z,0.65
2019-05-05T03:48:14.851Z,0.63
2019-05-05T03:50:44.516Z,0.58
2019-05-05T03:53:11.563Z,0.56
2019-05-05T03:55:39.065Z,0.64
2019-05-05T03:58:06.565Z,0.65
2019-05-05T04:00:38.569Z,0.74
2019-05-05T04:03:07.840Z,0.87
2019-05-05T04:05:37.223Z,1.05
2019-05-05T04:08:04.722Z,1.06
2019-05-05T04:10:33.516Z,1.17
2019-05-05T04:13:01.669Z,1.22
2019-05-05T04:15:29.162Z,1.20
2019-05-05T04:17:58.300Z,1.17
2019-05-05T04:20:27.276Z,1.13
2019-05-05T04:22:57.934Z,1.02
2019-05-05T04:25:24.432Z,1.03
2019-05-05T04:27:53.844Z,1.06
2019-05-05T04:30:23.479Z,0.97
2019-05-05T04:32:50.416Z,0.92
2019-05-05T04:35:17.985Z,1.06
2019-05-05T04:37:45.490Z,1.10
2019-05-05T04:40:14.766Z,1.16
2019-05-05T04:42:44.131Z,1.15
2019-05-05T04:45:12.252Z,1.15
2019-05-05T04:47:44.340Z,1.26
2019-05-05T04:50:29.890Z,1.31
2019-05-05T04:52:59.089Z,1.35
2019-05-05T04:55:27.272Z,1.33
2019-05-05T04:57:54.864Z,1.31
2019-05-05T05:00:24.156Z,1.23
2019-05-05T05:02:59.183Z,1.21
2019-05-05T05:05:44.608Z,1.26
2019-05-05T05:08:13.928Z,1.40
2019-05-05T05:10:43.799Z,1.54
2019-05-05T05:13:13.873Z,1.62
2019-05-05T05:15:41.656Z,1.63
2019-05-05T05:18:16.575Z,1.67
2019-05-05T05:20:44.472Z,1.72
2019-05-05T05:23:14.135Z,1.86
2019-05-05T05:25:43.706Z,2.00
2019-05-05T05:28:11.080Z,2.10
2019-05-05T05:30:38.567Z,2.25
2019-05-05T05:33:06.168Z,2.33
2019-05-05T05:35:34.428Z,2.29
2019-05-05T05:38:01.929Z,2.29
2019-05-05T05:40:34.235Z,2.35
2019-05-05T05:43:04.707Z,2.36
2019-05-05T05:45:34.381Z,2.22
2019-05-05T05:48:04.122Z,2.18
2019-05-05T05:50:39.281Z,2.17
2019-05-05T05:53:06.780Z,2.25
2019-05-05T05:55:34.383Z,2.41
2019-05-05T05:58:02.044Z,2.35
2019-05-05T06:00:29.548Z,2.44
2019-05-05T06:02:57.049Z,2.49
2019-05-05T06:05:24.557Z,2.48
2019-05-05T06:07:54.275Z,2.63
2019-05-05T06:10:25.036Z,2.72
2019-05-05T06:12:50.652Z,2.69
2019-05-05T06:15:18.817Z,2.91
2019-05-05T06:17:46.424Z,3.26
2019-05-05T06:20:14.553Z,3.46
2019-05-05T06:22:44.528Z,3.54
2019-05-05T06:25:15.098Z,3.94
2019-05-05T06:27:40.656Z,4.13
2019-05-05T06:30:08.156Z,4.28
2019-05-05T06:32:35.650Z,3.95
2019-05-05T06:35:03.813Z,3.66
2019-05-05T06:37:31.396Z,3.84
2019-05-05T06:40:00.533Z,4.01
2019-05-05T06:42:29.668Z,4.18
2019-05-05T06:45:04.020Z,4.52
2019-05-05T06:47:34.001Z,4.91
2019-05-05T06:50:03.562Z,4.93
2019-05-05T06:52:41.970Z,4.92
2019-05-05T06:55:00.002Z,4.57
2019-05-05T06:57:27.488Z,4.68
2019-05-05T06:59:55.004Z,4.73
2019-05-05T07:02:23.807Z,4.34
2019-05-05T07:04:51.472Z,4.43
2019-05-05T07:07:18.964Z,4.33
2019-05-05T07:09:46.492Z,4.20
2019-05-05T07:12:14.036Z,4.15
2019-05-05T07:14:41.565Z,4.08
2019-05-05T07:17:09.060Z,4.28
2019-05-05T07:19:38.820Z,4.66
2019-05-05T07:22:06.317Z,4.76
2019-05-05T07:24:34.402Z,5.07
2019-05-05T07:27:04.133Z,5.61
2019-05-05T07:29:31.488Z,5.93
2019-05-05T07:31:59.006Z,5.88
2019-05-05T07:34:28.311Z,5.28
2019-05-05T07:36:55.813Z,5.02
2019-05-05T07:39:23.891Z,4.81
2019-05-05T07:41:51.500Z,4.92
2019-05-05T07:44:26.627Z,4.75
2019-05-05T07:46:48.215Z,4.64
2019-05-05T07:49:15.717Z,5.41
2019-05-05T07:51:44.212Z,6.12
2019-05-05T07:54:14.309Z,6.52
2019-05-05T07:56:45.824Z,6.84
2019-05-05T07:59:14.556Z,6.60
2019-05-05T08:01:45.876Z,6.57
2019-05-05T08:04:13.546Z,6.77
2019-05-05T08:06:40.824Z,7.32
2019-05-05T08:09:08.338Z,7.90
2019-05-05T08:11:36.590Z,7.69
2019-05-05T08:14:04.224Z,7.64
2019-05-05T08:16:45.505Z,8.11
2019-05-05T08:19:31.157Z,8.28
2019-05-05T08:21:58.644Z,8.33
2019-05-05T08:24:45.644Z,7.58
2019-05-05T08:27:20.825Z,7.67
2019-05-05T08:29:48.599Z,7.69
2019-05-05T08:32:17.730Z,7.77
2019-05-05T08:34:57.467Z,7.93
2019-05-05T08:37:14.663Z,7.96
2019-05-05T08:39:44.557Z,8.08
2019-05-05T08:42:11.648Z,8.19
2019-05-05T08:44:39.148Z,8.04
2019-05-05T08:47:06.716Z,8.45
2019-05-05T08:49:34.802Z,8.85
2019-05-05T08:52:04.028Z,8.67
2019-05-05T08:54:31.800Z,8.43
2019-05-05T08:56:59.288Z,8.63
2019-05-05T08:59:26.780Z,8.81
2019-05-05T09:01:54.308Z,9.13
2019-05-05T09:04:21.848Z,8.81
2019-05-05T09:06:49.363Z,8.83
2019-05-05T09:09:16.857Z,9.02
2019-05-05T09:11:44.363Z,8.96
2019-05-05T09:14:11.853Z,9.53
2019-05-05T09:16:39.349Z,9.36
2019-05-05T09:19:20.508Z,8.92
2019-05-05T09:21:48.016Z,8.27
2019-05-05T09:24:17.144Z,8.18
2019-05-05T09:26:46.284Z,8.03
2019-05-05T09:29:21.364Z,7.84
2019-05-05T09:31:48.868Z,8.34
2019-05-05T09:34:16.416Z,9.40
2019-05-05T09:36:44.037Z,9.42
2019-05-05T09:39:13.614Z,9.25
2019-05-05T09:41:40.871Z,8.85
2019-05-05T09:44:08.356Z,9.07
2019-05-05T09:46:35.861Z,9.91
2019-05-05T09:49:04.677Z,9.91
2019-05-05T09:51:34.540Z,10.19
2019-05-05T09:54:13.774Z,10.21
2019-05-05T09:56:30.793Z,10.15
2019-05-05T09:58:58.284Z,9.46
2019-05-05T10:01:25.788Z,9.40
2019-05-05T10:03:54.920Z,8.51
2019-05-05T10:06:24.362Z,8.02
2019-05-05T10:08:53.739Z,7.48
2019-05-05T10:11:21.075Z,7.36
2019-05-05T10:13:48.552Z,7.18
2019-05-05T10:16:16.060Z,7.15
2019-05-05T10:18:44.859Z,7.52
2019-05-05T10:21:13.829Z,7.74
2019-05-05T10:23:43.693Z,7.84
2019-05-05T10:26:11.672Z,7.80
2019-05-05T10:28:39.176Z,7.68
2019-05-05T10:31:06.687Z,7.62
2019-05-05T10:33:36.415Z,7.55
2019-05-05T10:36:04.089Z,7.70
2019-05-05T10:38:33.998Z,7.88
2019-05-05T10:41:01.188Z,8.23
2019-05-05T10:43:28.680Z,8.66
2019-05-05T10:45:56.180Z,8.15
2019-05-05T10:48:23.686Z,8.38
2019-05-05T10:50:51.172Z,8.71
2019-05-05T10:53:18.663Z,9.49
2019-05-05T10:55:46.158Z,9.32
2019-05-05T10:58:13.852Z,9.44
2019-05-05T11:00:45.614Z,10.07
2019-05-05T11:03:14.804Z,10.35
2019-05-05T11:05:44.561Z,9.77
2019-05-05T11:08:13.478Z,9.58
2019-05-05T11:10:40.788Z,10.04
2019-05-05T11:13:08.359Z,10.68
2019-05-05T11:15:35.853Z,10.35
2019-05-05T11:18:04.029Z,10.21
2019-05-05T11:20:33.847Z,10.26
2019-05-05T11:23:00.966Z,11.01
2019-05-05T11:25:29.816Z,11.55
2019-05-05T11:27:58.104Z,11.32
2019-05-05T11:30:27.597Z,10.40
2019-05-05T11:33:14.270Z,10.46
2019-05-05T11:35:55.301Z,10.25
2019-05-05T11:38:24.585Z,9.78
2019-05-05T11:40:52.016Z,9.68
2019-05-05T11:43:19.520Z,11.03
2019-05-05T11:45:47.018Z,11.51
2019-05-05T11:48:14.881Z,11.89
2019-05-05T11:50:43.662Z,11.23
2019-05-05T11:53:11.392Z,10.53
2019-05-05T11:55:38.880Z,10.13
2019-05-05T11:58:06.392Z,11.29
2019-05-05T12:00:34.714Z,11.83
2019-05-05T12:03:03.852Z,11.63
2019-05-05T12:05:33.567Z,12.58
2019-05-05T12:08:00.779Z,12.55
2019-05-05T12:10:29.916Z,11.91
2019-05-05T12:12:59.072Z,11.37
2019-05-05T12:15:26.565Z,10.33
2019-05-05T12:17:54.535Z,9.94
2019-05-05T12:20:34.772Z,9.67
2019-05-05T12:23:04.657Z,9.58
2019-05-05T12:25:54.969Z,9.49
2019-05-05T12:28:25.688Z,9.46
2019-05-05T12:30:55.610Z,9.76
2019-05-05T12:33:24.315Z,10.74
2019-05-05T12:35:53.864Z,11.23
2019-05-05T12:38:21.125Z,12.17
2019-05-05T12:40:48.620Z,11.76
2019-05-05T12:43:16.120Z,11.79
2019-05-05T12:45:47.745Z,12.05
2019-05-05T12:48:16.893Z,12.24
2019-05-05T12:50:44.761Z,12.44
2019-05-05T12:53:14.418Z,12.34
2019-05-05T12:55:41.991Z,12.38
2019-05-05T12:58:10.080Z,12.63
2019-05-05T13:00:39.221Z,12.85
2019-05-05T13:03:06.729Z,13.09
2019-05-05T13:05:34.254Z,12.53
2019-05-05T13:08:03.750Z,12.27
2019-05-05T13:10:31.101Z,11.77
2019-05-05T13:12:58.603Z,11.49
2019-05-05T13:15:26.169Z,11.09
2019-05-05T13:17:54.229Z,10.49
2019-05-05T13:20:33.927Z,10.28
2019-05-05T13:23:06.068Z,10.43
2019-05-05T13:25:35.197Z,10.58
2019-05-05T13:28:04.081Z,10.37
2019-05-05T13:30:31.748Z,10.15
2019-05-05T13:32:59.253Z,10.15
2019-05-05T13:35:26.745Z,9.80
2019-05-05T13:37:54.963Z,9.49
2019-05-05T13:40:24.054Z,9.17
2019-05-05T13:42:51.697Z,8.96
2019-05-05T13:45:29.821Z,8.63
2019-05-05T13:47:57.312Z,8.65
2019-05-05T13:50:29.381Z,8.62
2019-05-05T13:52:56.870Z,8.57
2019-05-05T13:55:24.369Z,8.94
2019-05-05T13:57:54.853Z,8.91
2019-05-05T14:00:25.537Z,9.03
2019-05-05T14:02:54.477Z,8.93
2019-05-05T14:05:23.968Z,8.98
2019-05-05T14:07:53.654Z,9.05
2019-05-05T14:10:23.521Z,9.56
2019-05-05T14:12:50.481Z,10.03
2019-05-05T14:15:17.984Z,10.14
2019-05-05T14:17:45.475Z,9.85
2019-05-05T14:20:14.782Z,9.74
2019-05-05T14:22:43.838Z,9.98
2019-05-05T14:25:13.538Z,10.33
2019-05-05T14:27:41.117Z,11.03
2019-05-05T14:30:26.671Z,10.95
2019-05-05T14:32:55.301Z,11.30
2019-05-05T14:35:27.352Z,11.93
2019-05-05T14:38:03.900Z,11.69
2019-05-05T14:40:31.475Z,11.92
2019-05-05T14:42:58.972Z,11.11
2019-05-05T14:45:26.480Z,11.26
2019-05-05T14:47:54.743Z,10.95
2019-05-05T14:50:24.035Z,10.49
2019-05-05T14:52:53.431Z,10.56
2019-05-05T14:55:22.382Z,10.69
2019-05-05T14:57:50.080Z,10.76
2019-05-05T15:00:19.225Z,10.57
2019-05-05T15:02:46.876Z,10.72
2019-05-05T15:05:33.819Z,10.48
2019-05-05T15:08:13.635Z,10.14
2019-05-05T15:10:59.324Z,9.62
2019-05-05T15:13:26.819Z,9.61
2019-05-05T15:15:54.315Z,9.53
2019-05-05T15:18:23.958Z,9.53
2019-05-05T15:20:51.867Z,9.55
2019-05-05T15:23:19.447Z,9.68
2019-05-05T15:25:46.948Z,9.47
2019-05-05T15:28:14.444Z,9.46
2019-05-05T15:30:43.989Z,9.70
2019-05-05T15:33:11.260Z,9.72
2019-05-05T15:35:39.532Z,9.83
2019-05-05T15:38:08.292Z,9.86
2019-05-05T15:40:35.792Z,9.83
2019-05-05T15:43:03.804Z,9.86
2019-05-05T15:45:31.432Z,9.97
2019-05-05T15:47:58.932Z,10.28
2019-05-05T15:50:26.442Z,10.37
2019-05-05T15:52:54.473Z,10.42
2019-05-05T15:55:22.220Z,10.21
2019-05-05T15:57:49.717Z,10.13
2019-05-05T16:00:17.216Z,10.13
2019-05-05T16:02:44.708Z,9.94
2019-05-05T16:05:13.751Z,9.99
2019-05-05T16:07:41.388Z,10.11
2019-05-05T16:10:08.893Z,10.39
2019-05-05T16:12:39.377Z,10.70
2019-05-05T16:15:25.488Z,10.23
2019-05-05T16:18:00.588Z,10.01
2019-05-05T16:20:45.992Z,9.77
2019-05-05T16:23:21.334Z,9.91
2019-05-05T16:25:48.836Z,10.09
2019-05-05T16:28:16.331Z,10.15
2019-05-05T16:30:44.468Z,10.11
2019-05-05T16:33:13.779Z,9.98
2019-05-05T16:35:43.790Z,9.82
2019-05-05T16:38:11.396Z,9.85
2019-05-05T16:40:39.668Z,9.87
2019-05-05T16:43:07.159Z,9.95
2019-05-05T16:45:34.655Z,9.99
2019-05-05T16:48:03.906Z,9.77
2019-05-05T16:50:31.691Z,9.60
2019-05-05T16:53:05.472Z,9.65
2019-05-05T16:55:37.824Z,9.67
2019-05-05T16:58:06.736Z,9.64
2019-05-05T17:00:35.237Z,9.71
2019-05-05T17:03:07.126Z,9.91
2019-05-05T17:05:38.138Z,10.13
2019-05-05T17:08:06.120Z,9.94
2019-05-05T17:10:34.272Z,9.83
2019-05-05T17:13:03.568Z,9.67
2019-05-05T17:15:38.729Z,9.65
2019-05-05T17:18:32.877Z,9.47
2019-05-05T17:21:01.132Z,9.28
2019-05-05T17:23:28.625Z,9.25
2019-05-05T17:25:56.690Z,8.87
2019-05-05T17:28:24.192Z,8.76
2019-05-05T17:30:51.684Z,8.68
2019-05-05T17:33:19.189Z,8.76
2019-05-05T17:35:47.360Z,8.70
2019-05-05T17:38:16.225Z,8.83
2019-05-05T17:40:45.443Z,8.85
2019-05-05T17:43:24.422Z,8.65
2019-05-05T17:46:04.073Z,8.25
2019-05-05T17:48:44.064Z,8.18
2019-05-05T17:51:15.469Z,8.09
2019-05-05T17:53:44.604Z,8.15
2019-05-05T17:56:13.535Z,8.18
2019-05-05T17:58:41.144Z,7.99
2019-05-05T18:01:08.644Z,7.96
2019-05-05T18:03:36.156Z,7.82
2019-05-05T18:06:05.947Z,7.73
2019-05-05T18:08:44.502Z,7.76
2019-05-05T18:11:17.185Z,7.68
2019-05-05T18:17:07.055Z,7.82
2019-05-05T18:19:34.559Z,7.55
2019-05-05T18:22:03.072Z,7.53
2019-05-05T18:24:30.557Z,7.25
2019-05-05T18:26:58.056Z,7.20
2019-05-05T18:29:25.548Z,6.95
2019-05-05T18:31:53.663Z,6.95
2019-05-05T18:34:23.195Z,6.88
2019-05-05T18:36:50.484Z,6.89
2019-05-05T18:39:17.979Z,6.79
2019-05-05T18:42:04.391Z,6.73
2019-05-05T18:44:33.603Z,6.68
2019-05-05T18:47:18.152Z,6.53
2019-05-05T18:49:44.159Z,6.48
2019-05-05T18:52:13.710Z,6.28
2019-05-05T18:54:40.885Z,6.13
2019-05-05T18:57:09.057Z,6.16
2019-05-05T18:59:36.552Z,6.18
2019-05-05T19:02:21.147Z,6.22
2019-05-05T19:04:56.282Z,6.20
2019-05-05T19:07:28.121Z,5.99
2019-05-05T19:09:56.958Z,5.95
2019-05-05T19:12:24.658Z,5.90
2019-05-05T19:14:52.271Z,5.76
2019-05-05T19:17:19.776Z,5.69
2019-05-05T19:19:48.906Z,5.54
2019-05-05T19:22:48.403Z,5.52
2019-05-05T19:25:16.124Z,5.54
2019-05-05T19:27:44.425Z,5.31
2019-05-05T19:30:13.752Z,5.18
2019-05-05T19:32:43.307Z,5.22
2019-05-05T19:35:10.547Z,5.07
2019-05-05T19:37:38.048Z,5.20
2019-05-05T19:40:06.141Z,5.18
2019-05-05T19:42:33.916Z,5.05
2019-05-05T19:45:01.428Z,5.04
2019-05-05T19:47:28.929Z,4.91
2019-05-05T19:49:58.062Z,4.95
2019-05-05T19:52:25.560Z,4.89
2019-05-05T19:54:54.735Z,4.80
2019-05-05T19:57:22.425Z,4.80
2019-05-05T19:59:49.916Z,4.64
2019-05-05T20:02:17.409Z,4.66
2019-05-05T20:04:44.927Z,4.47
2019-05-05T20:07:13.934Z,4.45
2019-05-05T20:09:43.563Z,4.43
2019-05-05T20:12:10.920Z,4.50
2019-05-05T20:14:38.416Z,4.50
2019-05-05T20:17:14.776Z,4.44
2019-05-05T20:19:44.138Z,4.38
2019-05-05T20:22:11.818Z,4.44
2019-05-05T20:24:39.316Z,4.38
2019-05-05T20:27:06.804Z,4.24
2019-05-05T20:29:37.342Z,4.12
2019-05-05T20:32:04.288Z,4.01
2019-05-05T20:34:39.444Z,4.09
2019-05-05T20:37:11.457Z,4.05
2019-05-05T20:39:38.956Z,4.01
2019-05-05T20:42:06.664Z,3.98
2019-05-05T20:44:34.243Z,4.11
2019-05-05T20:47:04.356Z,4.10
2019-05-05T20:49:31.415Z,4.10
2019-05-05T20:51:58.895Z,4.12
2019-05-05T20:54:27.163Z,4.31
2019-05-05T20:56:54.658Z,4.49
2019-05-05T20:59:28.163Z,4.45
2019-05-05T21:01:51.454Z,4.41
2019-05-05T21:04:18.949Z,4.36
2019-05-05T21:06:46.439Z,4.40
2019-05-05T21:09:14.352Z,4.34
2019-05-05T21:11:43.778Z,4.41
2019-05-05T21:14:11.234Z,4.38
2019-05-05T21:16:38.792Z,4.35
2019-05-05T21:19:06.332Z,4.35
2019-05-05T21:21:35.474Z,4.36
2019-05-05T21:24:04.173Z,4.32
2019-05-05T21:26:51.696Z,4.36
2019-05-05T21:29:19.214Z,4.46
2019-05-05T21:31:46.709Z,4.69
2019-05-05T21:34:14.279Z,4.72
2019-05-05T21:36:41.787Z,4.78
2019-05-05T21:39:09.386Z,4.85
2019-05-05T21:41:37.114Z,5.00
2019-05-05T21:44:05.255Z,5.08
2019-05-05T21:46:34.579Z,5.12
2019-05-05T21:49:04.006Z,5.12
2019-05-05T21:51:41.927Z,5.21
2019-05-05T21:54:27.707Z,5.14
2019-05-05T21:57:14.079Z,5.19
2019-05-05T21:59:54.398Z,5.18
2019-05-05T22:02:11.016Z,5.14
2019-05-05T22:04:38.516Z,5.17
2019-05-05T22:07:06.007Z,5.20
2019-05-05T22:09:34.348Z,5.19
2019-05-05T22:12:04.046Z,5.17
2019-05-05T22:14:33.998Z,5.17
2019-05-05T22:17:01.036Z,5.11
2019-05-05T22:19:30.184Z,5.08
2019-05-05T22:22:05.607Z,5.04
2019-05-05T22:24:33.370Z,4.95
2019-05-05T22:27:04.557Z,4.95
2019-05-05T22:29:31.567Z,4.88
2019-05-05T22:31:59.052Z,4.83
2019-05-05T22:34:26.552Z,4.86
2019-05-05T22:36:54.047Z,4.80
2019-05-05T22:39:21.545Z,4.89
2019-05-05T22:41:49.036Z,4.86
2019-05-05T22:44:16.544Z,4.85
2019-05-05T22:46:44.032Z,4.91
2019-05-05T22:49:11.515Z,4.86
2019-05-05T22:51:39.027Z,4.88
2019-05-05T22:54:07.180Z,4.88
2019-05-05T22:56:34.675Z,4.77
2019-05-05T22:59:04.370Z,4.84
2019-05-05T23:01:32.072Z,4.89
2019-05-05T23:04:04.168Z,4.89
2019-05-05T23:06:33.311Z,4.69
2019-05-05T23:09:00.807Z,4.56
2019-05-05T23:11:28.372Z,4.52
2019-05-05T23:13:57.500Z,4.51
2019-05-05T23:16:26.642Z,4.46
2019-05-05T23:18:54.719Z,4.39
2019-05-05T23:21:24.719Z,4.18
2019-05-05T23:23:56.754Z,4.22
2019-05-05T23:26:28.843Z,4.09
2019-05-05T23:28:57.114Z,4.19
2019-05-05T23:31:24.653Z,4.03
2019-05-05T23:33:52.144Z,3.82
2019-05-05T23:36:19.647Z,3.96
2019-05-05T23:38:47.136Z,4.05
2019-05-05T23:41:14.753Z,3.96
2019-05-05T23:43:44.918Z,3.83
2019-05-05T23:46:14.308Z,3.83
2019-05-05T23:48:41.414Z,3.63
2019-05-05T23:51:08.920Z,3.63
2019-05-05T23:53:36.407Z,3.54
2019-05-05T23:56:04.059Z,3.41
2019-05-05T23:58:31.667Z,3.47
